Date,TemperatureHighF,TemperatureAvgF,TemperatureLowF,DewpointHighF,DewpointAvgF,DewpointLowF,HumidityHigh,HumidityAvg,HumidityLow,PressureMaxIn,PressureMinIn,WindSpeedMaxMPH,WindSpeedAvgMPH,GustSpeedMaxMPH,PrecipitationSumIn
2013-3-1,40,35,31,34,32,27,96,87,75,29.79,29.62,9,0,9,0.01
2013-3-2,35,30,26,28,26,23,92,83,73,29.79,29.73,10,0,10,0.01
2013-3-3,30,26,23,26,22,17,89,82,76,29.79,29.71,12,0,12,0.02
2013-3-4,33,28,25,26,23,20,92,80,70,29.93,29.78,15,1,15,0.00
2013-3-5,41,32,28,30,26,24,91,78,62,30.10,29.93,10,0,10,0.00
2013-3-6,43,35,0,36,30,0,93,81,67,30.11,30.02,18,2,18,0.00
2013-3-7,35,32,29,32,29,26,95,86,76,30.15,30.06,15,1,15,0.01
2013-3-8,37,31,28,31,28,24,95,87,73,30.29,30.06,13,1,13,0.08
2013-3-9,49,35,26,31,26,22,89,72,48,30.37,30.27,14,0,14,0.20
2013-3-10,53,39,24,33,28,21,91,66,39,30.41,30.26,9,1,9,0.00
2013-3-11,50,42,34,43,36,30,91,79,62,30.31,30.09,10,1,10,0.00
2013-3-12,53,49,38,52,46,35,96,91,85,30.09,29.68,17,1,17,0.85
2013-3-13,47,38,32,35,30,24,92,72,46,29.87,29.80,12,1,12,0.00
2013-3-14,33,28,24,28,18,12,91,69,55,29.93,29.84,18,2,18,0.01
2013-3-15,38,29,20,30,21,12,90,70,46,29.96,29.71,17,1,17,0.00
2013-3-16,37,31,22,28,19,12,87,64,41,29.95,29.80,11,0,11,0.00
2013-3-17,35,28,19,19,14,10,76,58,36,30.36,29.94,16,1,16,0.00
2013-3-18,38,26,14,25,13,6,91,61,30,30.47,30.11,18,1,18,0.00
2013-3-19,37,32,28,34,29,25,96,91,85,30.11,29.72,21,2,21,0.17
2013-3-20,38,29,22,26,22,20,93,74,50,29.86,29.80,11,1,18,0.16
2013-3-21,37,27,17,21,17,13,93,67,42,29.86,29.66,8,0,8,0.07
2013-3-22,36,28,16,28,21,11,91,76,59,29.86,29.73,14,1,14,0.02
2013-3-23,41,34,30,28,24,20,92,68,49,29.92,29.81,21,2,21,0.01
2013-3-24,42,34,27,28,24,21,84,68,53,29.94,29.77,12,0,12,0.00
2013-3-25,46,37,29,29,26,24,83,66,46,29.79,29.51,15,1,15,0.00
2013-3-26,46,37,26,32,27,22,86,70,44,29.88,29.62,11,0,11,0.00
2013-3-27,52,36,21,33,26,19,94,69,35,29.97,29.86,14,1,14,0.00
2013-3-28,46,40,35,37,33,30,86,77,67,30.12,29.96,10,0,10,0.00
2013-3-29,51,40,27,36,31,26,94,72,48,30.16,30.07,11,1,11,0.00
2013-3-30,56,41,26,35,28,21,94,63,30,30.17,30.08,11,0,13,0.00
2013-3-31,55,41,25,40,30,22,94,68,36,30.16,29.73,14,1,14,0.09